createdAt,value
2019-01-11T00:01:44.522Z,96.40
2019-01-11T00:05:31.206Z,96.20
2019-01-11T00:06:43.912Z,96.10
2019-01-11T00:07:52.023Z,96.70
2019-01-11T00:09:20.319Z,96.50
2019-01-11T00:10:49.750Z,96.70
2019-01-11T00:11:55.674Z,96.80
2019-01-11T00:15:25.007Z,96.60
2019-01-11T00:16:33.790Z,96.30
2019-01-11T00:17:57.979Z,96.10
2019-01-11T00:19:07.158Z,96.20
2019-01-11T00:20:13.604Z,96.50
2019-01-11T00:21:21.780Z,96.50
2019-01-11T00:22:27.674Z,96.40
2019-01-11T00:23:33.494Z,96.30
2019-01-11T00:24:39.286Z,96.40
2019-01-11T00:25:45.057Z,96.50
2019-01-11T00:26:50.868Z,96.40
2019-01-11T00:27:56.662Z,96.30
2019-01-11T00:29:02.566Z,96.20
2019-01-11T00:30:15.218Z,96.10
2019-01-11T00:31:21.067Z,96.20
2019-01-11T00:32:27.414Z,96.10
2019-01-11T00:33:33.728Z,96.00
2019-01-11T00:34:39.617Z,96.10
2019-01-11T00:36:21.273Z,96.30
2019-01-11T00:37:27.290Z,96.30
2019-01-11T00:38:56.215Z,95.90
2019-01-11T00:40:03.952Z,95.80
2019-01-11T00:41:09.937Z,95.90
2019-01-11T00:42:15.748Z,96.00
2019-01-11T00:43:21.599Z,96.10
2019-01-11T00:44:27.400Z,96.00
2019-01-11T00:45:52.426Z,96.00
2019-01-11T00:46:58.726Z,96.10
2019-01-11T00:48:07.067Z,96.00
2019-01-11T00:49:13.736Z,96.10
2019-01-11T00:50:23.530Z,96.00
2019-01-11T00:51:29.410Z,96.30
2019-01-11T01:00:00.694Z,96.00
2019-01-11T01:03:10.099Z,95.50
2019-01-11T01:13:52.307Z,95.40
2019-01-11T01:15:49.582Z,95.70
2019-01-11T01:16:56.082Z,95.70
2019-01-11T01:19:06.040Z,95.50
2019-01-11T01:30:51.529Z,96.00
2019-01-11T01:32:52.924Z,96.10
2019-01-11T01:35:54.366Z,96.40
2019-01-11T01:39:08.153Z,96.00
2019-01-11T01:40:53.698Z,95.80
2019-01-11T01:41:59.206Z,96.00
2019-01-11T01:43:05.923Z,96.00
2019-01-11T01:52:40.678Z,96.20
2019-01-11T01:53:47.535Z,97.30
2019-01-11T01:57:31.945Z,97.50
2019-01-11T01:58:48.602Z,97.20
2019-01-11T01:59:54.626Z,96.90
2019-01-11T02:01:24.691Z,96.80
2019-01-11T02:02:34.073Z,96.70
2019-01-11T02:03:39.981Z,96.80
2019-01-11T02:04:46.119Z,96.90
2019-01-11T02:05:57.055Z,97.20
2019-01-11T02:07:04.400Z,97.60
2019-01-11T02:08:10.214Z,97.70
2019-01-11T02:09:16.322Z,97.90
2019-01-11T02:10:22.165Z,97.80
2019-01-11T02:11:27.980Z,97.70
2019-01-11T02:12:33.776Z,97.50
2019-01-11T02:13:39.987Z,97.30
2019-01-11T02:14:45.803Z,97.10
2019-01-11T02:15:51.614Z,97.10
2019-01-11T02:16:57.525Z,96.80
2019-01-11T02:18:03.569Z,96.80
2019-01-11T02:19:09.413Z,96.80
2019-01-11T02:20:17.835Z,97.50
2019-01-11T02:21:23.641Z,97.10
2019-01-11T02:22:29.554Z,97.10
2019-01-11T02:23:35.890Z,97.10
2019-01-11T02:24:41.662Z,97.30
2019-01-11T02:25:47.540Z,97.40
2019-01-11T02:26:53.301Z,97.10
2019-01-11T02:28:28.281Z,96.90
2019-01-11T02:32:21.200Z,96.80
2019-01-11T02:33:34.534Z,96.60
2019-01-11T02:34:40.475Z,96.90
2019-01-11T02:35:46.310Z,96.90
2019-01-11T02:36:53.794Z,96.80
2019-01-11T02:38:02.594Z,96.70
2019-01-11T02:39:09.198Z,97.20
2019-01-11T02:40:15.341Z,97.30
2019-01-11T02:41:24.835Z,97.20
2019-01-11T02:42:30.707Z,97.20
2019-01-11T02:43:38.104Z,97.10
2019-01-11T02:44:43.935Z,96.90
2019-01-11T02:45:49.728Z,96.70
2019-01-11T02:46:55.636Z,96.70
2019-01-11T02:48:01.434Z,97.00
2019-01-11T02:49:08.632Z,96.40
2019-01-11T02:50:14.756Z,96.60
2019-01-11T02:51:20.538Z,96.80
2019-01-11T02:52:38.142Z,96.80
2019-01-11T02:53:44.096Z,96.60
2019-01-11T02:54:49.846Z,96.40
2019-01-11T02:55:55.722Z,96.30
2019-01-11T02:57:01.628Z,96.30
2019-01-11T02:58:07.439Z,96.30
2019-01-11T02:59:13.279Z,96.60
2019-01-11T03:00:20.904Z,97.10
2019-01-11T03:01:26.742Z,97.30
2019-01-11T03:02:33.175Z,97.20
2019-01-11T03:03:39.007Z,96.90
2019-01-11T03:04:44.901Z,96.90
2019-01-11T03:05:50.714Z,96.70
2019-01-11T03:06:56.411Z,96.70
2019-01-11T03:08:02.323Z,96.70
2019-01-11T03:09:09.107Z,96.70
2019-01-11T03:10:17.769Z,96.70
2019-01-11T03:11:23.580Z,96.70
2019-01-11T03:12:29.327Z,96.90
2019-01-11T03:13:35.091Z,96.90
2019-01-11T03:14:40.901Z,96.90
2019-01-11T03:15:46.692Z,96.80
2019-01-11T03:16:52.452Z,96.70
2019-01-11T03:17:58.217Z,97.00
2019-01-11T03:19:04.026Z,97.10
2019-01-11T03:20:10.058Z,97.20
2019-01-11T03:21:16.029Z,97.30
2019-01-11T03:23:20.519Z,97.40
2019-01-11T03:24:29.182Z,97.60
2019-01-11T03:25:37.134Z,97.70
2019-01-11T03:26:43.057Z,97.80
2019-01-11T03:27:49.060Z,97.70
2019-01-11T03:28:54.945Z,97.90
2019-01-11T03:30:00.782Z,97.80
2019-01-11T03:31:32.512Z,97.60
2019-01-11T03:32:38.380Z,97.50
2019-01-11T03:33:44.287Z,97.60
2019-01-11T03:35:07.305Z,97.60
2019-01-11T03:36:13.215Z,97.40
2019-01-11T03:37:19.933Z,97.10
2019-01-11T03:38:25.876Z,96.90
2019-01-11T03:39:32.510Z,96.80
2019-01-11T03:41:26.369Z,96.80
2019-01-11T03:43:08.262Z,96.90
2019-01-11T03:47:14.292Z,96.70
2019-01-11T03:48:43.129Z,96.70
2019-01-11T03:49:55.055Z,96.80
2019-01-11T03:51:07.636Z,97.20
2019-01-11T03:52:18.361Z,97.30
2019-01-11T03:53:26.363Z,97.30
2019-01-11T03:54:34.207Z,97.00
2019-01-11T03:55:44.299Z,97.50
2019-01-11T03:57:00.442Z,97.10
2019-01-11T03:58:09.884Z,97.10
2019-01-11T03:59:26.321Z,97.10
2019-01-11T04:00:46.982Z,97.10
2019-01-11T04:01:59.156Z,96.90
2019-01-11T04:03:15.516Z,96.90
2019-01-11T04:04:21.869Z,97.20
2019-01-11T04:05:28.953Z,97.20
2019-01-11T04:06:34.783Z,97.10
2019-01-11T04:08:39.336Z,97.30
2019-01-11T04:09:45.066Z,97.30
2019-01-11T04:10:51.979Z,97.10
2019-01-11T04:11:57.925Z,96.90
2019-01-11T04:13:03.733Z,96.80
2019-01-11T04:14:09.652Z,96.70
2019-01-11T04:15:16.817Z,96.80
2019-01-11T04:16:22.649Z,96.70
2019-01-11T04:17:28.592Z,96.70
2019-01-11T04:18:54.031Z,96.80
2019-01-11T04:20:02.699Z,96.80
2019-01-11T04:21:09.145Z,96.70
2019-01-11T04:22:27.355Z,96.80
2019-01-11T04:23:35.142Z,96.90
2019-01-11T04:25:04.722Z,96.80
2019-01-11T04:26:17.143Z,96.90
2019-01-11T04:27:26.123Z,96.90
2019-01-11T04:28:40.236Z,97.00
2019-01-11T04:29:48.050Z,96.90
2019-01-11T04:30:55.107Z,96.70
2019-01-11T04:32:03.544Z,96.70
2019-01-11T04:33:21.425Z,96.60
2019-01-11T04:34:38.471Z,96.60
2019-01-11T04:36:19.395Z,96.80
2019-01-11T04:37:30.320Z,96.80
2019-01-11T04:38:39.403Z,97.00
2019-01-11T04:40:14.599Z,97.00
2019-01-11T04:41:59.434Z,97.00
2019-01-11T04:44:13.146Z,97.40
2019-01-11T04:45:41.037Z,97.20
2019-01-11T04:46:47.521Z,97.20
2019-01-11T04:47:53.310Z,97.20
2019-01-11T04:48:59.173Z,97.40
2019-01-11T04:50:09.547Z,97.40
2019-01-11T04:51:13.610Z,97.40
2019-01-11T04:52:19.410Z,97.50
2019-01-11T04:53:30.313Z,97.70
2019-01-11T04:54:36.196Z,97.30
2019-01-11T04:55:43.105Z,97.20
2019-01-11T04:56:49.298Z,97.30
2019-01-11T04:58:42.890Z,97.50
2019-01-11T05:01:45.772Z,97.60
2019-01-11T05:02:58.017Z,97.50
2019-01-11T05:04:09.910Z,97.50
2019-01-11T05:05:20.414Z,97.80
2019-01-11T05:06:26.230Z,97.90
2019-01-11T05:07:32.101Z,97.80
2019-01-11T05:08:38.050Z,97.60
2019-01-11T05:09:43.974Z,97.50
2019-01-11T05:10:49.915Z,97.50
2019-01-11T05:11:55.838Z,97.40
2019-01-11T05:13:22.350Z,97.60
2019-01-11T05:14:29.359Z,97.70
2019-01-11T05:15:36.927Z,97.80
2019-01-11T05:16:42.673Z,97.50
2019-01-11T05:17:48.479Z,97.40
2019-01-11T05:18:54.208Z,97.20
2019-01-11T05:20:00.065Z,97.50
2019-01-11T05:21:06.297Z,97.40
2019-01-11T05:22:12.083Z,97.40
2019-01-11T05:23:17.880Z,97.60
2019-01-11T05:24:23.673Z,97.80
2019-01-11T05:25:29.511Z,97.70
2019-01-11T05:26:35.303Z,97.90
2019-01-11T05:27:41.107Z,97.90
2019-01-11T05:28:46.846Z,97.90
2019-01-11T05:29:52.610Z,98.00
2019-01-11T05:30:59.245Z,97.90
2019-01-11T05:32:05.138Z,97.80
2019-01-11T05:33:10.980Z,98.00
2019-01-11T05:34:16.778Z,98.00
2019-01-11T05:35:22.548Z,97.60
2019-01-11T05:36:28.747Z,97.60
2019-01-11T05:37:34.531Z,97.90
2019-01-11T05:38:40.323Z,98.10
2019-01-11T05:39:46.092Z,98.30
2019-01-11T05:40:51.862Z,98.60
2019-01-11T05:41:57.627Z,98.50
2019-01-11T05:43:03.881Z,98.30
2019-01-11T05:44:09.790Z,98.10
2019-01-11T05:45:15.988Z,97.90
2019-01-11T05:46:22.104Z,97.80
2019-01-11T05:47:27.848Z,97.70
2019-01-11T05:48:33.937Z,97.60
2019-01-11T05:49:39.745Z,97.60
2019-01-11T05:50:45.462Z,98.00
2019-01-11T05:51:51.301Z,98.30
2019-01-11T05:52:57.069Z,98.60
2019-01-11T05:54:02.830Z,98.70
2019-01-11T05:55:10.651Z,98.80
2019-01-11T05:56:19.269Z,98.90
2019-01-11T05:57:25.118Z,99.00
2019-01-11T05:58:32.458Z,98.90
2019-01-11T05:59:38.313Z,98.70
2019-01-11T06:00:47.598Z,98.60
2019-01-11T06:01:56.771Z,98.40
2019-01-11T06:03:38.038Z,98.20
2019-01-11T06:04:44.458Z,98.10
2019-01-11T06:06:03.566Z,98.00
2019-01-11T06:07:35.268Z,97.90
2019-01-11T06:08:46.747Z,97.80
2019-01-11T06:09:53.189Z,97.90
2019-01-11T06:11:02.597Z,97.90
2019-01-11T06:12:08.748Z,97.70
2019-01-11T06:13:40.814Z,97.70
2019-01-11T06:14:48.808Z,97.80
2019-01-11T06:15:56.865Z,97.90
2019-01-11T06:17:02.661Z,97.90
2019-01-11T06:18:08.414Z,97.70
2019-01-11T06:19:14.164Z,97.70
2019-01-11T06:20:20.237Z,98.10
2019-01-11T06:21:26.493Z,98.20
2019-01-11T06:22:32.382Z,98.40
2019-01-11T06:23:38.169Z,98.30
2019-01-11T06:24:43.990Z,98.50
2019-01-11T06:25:49.875Z,98.40
2019-01-11T06:26:55.647Z,98.20
2019-01-11T06:28:01.422Z,98.20
2019-01-11T06:29:07.167Z,98.20
2019-01-11T06:30:14.824Z,98.20
2019-01-11T06:31:20.667Z,98.10
2019-01-11T06:32:26.428Z,98.10
2019-01-11T06:33:32.231Z,98.30
2019-01-11T06:34:38.054Z,98.20
2019-01-11T06:35:43.911Z,98.40
2019-01-11T06:36:49.675Z,98.30
2019-01-11T06:37:55.481Z,98.20
2019-01-11T06:39:01.311Z,98.20
2019-01-11T06:40:08.281Z,98.30
2019-01-11T06:41:14.336Z,98.40
2019-01-11T06:42:29.456Z,98.40
2019-01-11T06:43:35.292Z,98.60
2019-01-11T06:44:42.390Z,98.50
2019-01-11T06:45:48.206Z,98.70
2019-01-11T06:46:54.013Z,99.00
2019-01-11T06:47:59.920Z,98.80
2019-01-11T06:49:05.892Z,98.90
2019-01-11T06:50:14.018Z,99.20
2019-01-11T06:51:20.082Z,99.00
2019-01-11T06:52:25.921Z,99.40
2019-01-11T06:53:33.225Z,99.00
2019-01-11T06:54:41.178Z,98.80
2019-01-11T06:55:46.962Z,99.20
2019-01-11T06:56:52.697Z,99.00
2019-01-11T06:57:58.460Z,98.80
2019-01-11T06:59:10.410Z,98.50
2019-01-11T07:00:16.385Z,98.50
2019-01-11T07:01:22.230Z,98.40
2019-01-11T07:02:28.165Z,98.10
2019-01-11T07:03:34.003Z,98.20
2019-01-11T07:04:40.850Z,98.20
2019-01-11T07:05:46.695Z,98.20
2019-01-11T07:06:52.585Z,98.30
2019-01-11T07:07:58.393Z,98.40
2019-01-11T07:09:05.930Z,98.60
2019-01-11T07:10:15.049Z,98.60
2019-01-11T07:11:20.919Z,98.30
2019-01-11T07:12:26.765Z,98.70
2019-01-11T07:13:32.639Z,98.90
2019-01-11T07:14:38.419Z,98.90
2019-01-11T07:15:44.249Z,98.80
2019-01-11T07:16:50.062Z,98.90
2019-01-11T07:17:56.407Z,98.90
2019-01-11T07:19:02.300Z,98.80
2019-01-11T07:20:09.511Z,98.50
2019-01-11T07:21:15.434Z,98.50
2019-01-11T07:22:21.213Z,98.60
2019-01-11T07:23:27.053Z,98.60
2019-01-11T07:24:33.055Z,99.10
2019-01-11T07:25:39.015Z,99.40
2019-01-11T07:26:44.795Z,99.10
2019-01-11T07:27:59.901Z,99.10
2019-01-11T07:29:08.526Z,98.80
2019-01-11T07:30:15.551Z,98.80
2019-01-11T07:31:27.604Z,98.90
2019-01-11T07:32:33.911Z,98.90
2019-01-11T07:33:39.820Z,98.60
2019-01-11T07:34:45.610Z,98.60
2019-01-11T07:35:52.086Z,98.80
2019-01-11T07:36:59.082Z,99.00
2019-01-11T07:38:04.934Z,98.90
2019-01-11T07:39:28.001Z,98.90
2019-01-11T07:40:33.832Z,98.80
2019-01-11T07:41:39.670Z,98.50
2019-01-11T07:42:46.466Z,98.50
2019-01-11T07:43:52.334Z,98.60
2019-01-11T07:44:58.210Z,98.60
2019-01-11T07:46:04.049Z,98.50
2019-01-11T07:47:09.937Z,98.40
2019-01-11T07:48:17.285Z,98.50
2019-01-11T07:49:23.436Z,98.60
2019-01-11T07:50:30.902Z,98.70
2019-01-11T07:51:36.765Z,98.80
2019-01-11T07:52:42.586Z,98.80
2019-01-11T07:53:48.603Z,98.60
2019-01-11T07:54:54.369Z,98.40
2019-01-11T07:56:00.226Z,98.50
2019-01-11T07:57:06.032Z,98.40
2019-01-11T07:58:11.836Z,98.30
2019-01-11T07:59:19.042Z,98.20
2019-01-11T08:00:25.114Z,98.30
2019-01-11T08:01:35.705Z,98.60
2019-01-11T08:02:41.905Z,98.70
2019-01-11T08:03:47.802Z,98.90
2019-01-11T08:04:53.737Z,98.80
2019-01-11T08:05:59.603Z,98.70
2019-01-11T08:07:06.169Z,98.50
2019-01-11T08:08:12.047Z,98.20
2019-01-11T08:09:17.999Z,98.30
2019-01-11T08:10:23.943Z,98.30
2019-01-11T08:11:29.841Z,98.40
2019-01-11T08:12:35.688Z,98.50
2019-01-11T08:13:41.523Z,98.50
2019-01-11T08:14:47.460Z,98.60
2019-01-11T08:15:53.489Z,98.80
2019-01-11T08:16:59.409Z,98.80
2019-01-11T08:18:05.470Z,98.70
2019-01-11T08:19:11.328Z,98.70
2019-01-11T08:20:17.170Z,98.70
2019-01-11T08:21:23.006Z,99.00
2019-01-11T08:22:46.932Z,99.10
2019-01-11T08:23:52.754Z,99.20
2019-01-11T08:25:03.539Z,99.20
2019-01-11T08:26:09.467Z,99.20
2019-01-11T08:27:15.369Z,99.10
2019-01-11T08:28:22.139Z,98.90
2019-01-11T08:29:27.977Z,98.90
2019-01-11T08:30:45.767Z,98.50
2019-01-11T08:31:51.569Z,98.20
2019-01-11T08:32:57.465Z,98.60
2019-01-11T08:34:03.309Z,98.70
2019-01-11T08:35:10.510Z,98.50
2019-01-11T08:36:16.323Z,98.60
2019-01-11T08:37:22.640Z,98.80
2019-01-11T08:38:28.624Z,99.00
2019-01-11T08:39:34.429Z,98.90
2019-01-11T08:40:40.300Z,98.70
2019-01-11T08:41:46.231Z,98.90
2019-01-11T08:42:52.028Z,98.90
2019-01-11T08:43:58.030Z,99.20
2019-01-11T08:45:05.128Z,99.40
2019-01-11T08:46:10.956Z,99.60
2019-01-11T08:47:16.754Z,99.40
2019-01-11T08:48:22.591Z,99.30
2019-01-11T08:49:28.535Z,99.00
2019-01-11T08:50:34.374Z,99.00
2019-01-11T08:51:40.291Z,99.00
2019-01-11T08:52:46.412Z,99.00
2019-01-11T08:53:52.256Z,99.10
2019-01-11T08:54:58.707Z,98.80
2019-01-11T08:56:08.291Z,98.70
2019-01-11T08:57:12.256Z,98.70
2019-01-11T08:58:18.091Z,98.60
2019-01-11T08:59:23.943Z,98.50
2019-01-11T09:00:29.784Z,98.60
2019-01-11T09:01:35.614Z,98.70
2019-01-11T09:02:42.395Z,98.70
2019-01-11T09:03:48.275Z,98.80
2019-01-11T09:04:54.110Z,99.00
2019-01-11T09:06:00.001Z,98.90
2019-01-11T09:07:05.973Z,98.80
2019-01-11T09:08:11.777Z,98.80
2019-01-11T09:09:17.733Z,98.60
2019-01-11T09:10:24.804Z,98.30
2019-01-11T09:11:32.142Z,98.70
2019-01-11T09:12:38.055Z,98.80
2019-01-11T09:13:44.035Z,98.90
2019-01-11T09:14:51.975Z,98.90
2019-01-11T09:16:00.072Z,99.10
2019-01-11T09:17:06.312Z,99.10
2019-01-11T09:18:16.494Z,98.90
2019-01-11T09:19:22.450Z,98.60
2019-01-11T09:20:28.332Z,98.40
2019-01-11T09:21:34.246Z,98.50
2019-01-11T09:22:40.113Z,98.30
2019-01-11T09:23:46.054Z,98.10
2019-01-11T09:24:51.848Z,98.30
2019-01-11T09:25:57.753Z,98.50
2019-01-11T09:27:03.571Z,98.70
2019-01-11T09:28:09.658Z,98.90
2019-01-11T09:29:15.482Z,99.10
2019-01-11T09:30:21.623Z,99.00
2019-01-11T09:31:27.380Z,99.00
2019-01-11T09:32:33.130Z,99.10
2019-01-11T09:33:39.015Z,98.90
2019-01-11T09:34:44.729Z,98.60
2019-01-11T09:35:50.944Z,98.50
2019-01-11T09:36:56.717Z,98.20
2019-01-11T09:38:02.571Z,98.10
2019-01-11T09:39:09.848Z,98.40
2019-01-11T09:40:15.897Z,98.50
2019-01-11T09:41:21.671Z,98.50
2019-01-11T09:42:28.557Z,98.50
2019-01-11T09:43:34.424Z,98.40
2019-01-11T09:44:40.388Z,98.30
2019-01-11T09:45:47.566Z,98.40
2019-01-11T09:46:53.384Z,98.10
2019-01-11T09:47:59.245Z,98.30
2019-01-11T09:49:05.083Z,98.40
2019-01-11T09:50:11.192Z,98.30
2019-01-11T09:51:16.928Z,98.40
2019-01-11T09:52:22.706Z,97.90
2019-01-11T09:53:28.540Z,97.70
2019-01-11T09:54:34.330Z,97.50
2019-01-11T09:55:40.163Z,97.40
2019-01-11T09:56:45.949Z,97.40
2019-01-11T09:57:51.822Z,97.60
2019-01-11T09:58:57.643Z,98.10
2019-01-11T10:00:03.740Z,98.50
2019-01-11T10:01:09.989Z,98.30
2019-01-11T10:02:34.642Z,98.40
2019-01-11T10:03:40.606Z,98.40
2019-01-11T10:04:46.471Z,98.60
2019-01-11T10:05:54.923Z,98.60
2019-01-11T10:07:21.141Z,98.40
2019-01-11T10:08:27.044Z,98.50
2019-01-11T10:09:33.915Z,98.10
2019-01-11T10:10:40.181Z,97.70
2019-01-11T10:11:46.076Z,97.40
2019-01-11T10:12:51.944Z,97.50
2019-01-11T10:13:57.883Z,97.80
2019-01-11T10:15:03.789Z,97.60
2019-01-11T10:16:09.673Z,97.60
2019-01-11T10:17:15.669Z,97.40
2019-01-11T10:18:21.571Z,97.50
2019-01-11T10:19:27.460Z,97.80
2019-01-11T10:20:33.301Z,98.10
2019-01-11T10:21:39.248Z,97.90
2019-01-11T10:22:47.134Z,97.80
2019-01-11T10:23:53.034Z,97.80
2019-01-11T10:24:58.888Z,98.00
2019-01-11T10:26:05.062Z,98.10
2019-01-11T10:27:11.251Z,98.30
2019-01-11T10:28:17.127Z,98.40
2019-01-11T10:29:22.973Z,98.10
2019-01-11T10:30:28.773Z,97.90
2019-01-11T10:31:34.622Z,97.70
2019-01-11T10:32:40.392Z,97.60
2019-01-11T10:33:46.262Z,97.60
2019-01-11T10:34:52.033Z,97.50
2019-01-11T10:35:57.871Z,97.60
2019-01-11T10:37:03.788Z,97.50
2019-01-11T10:38:09.618Z,97.50
2019-01-11T10:39:15.552Z,97.60
2019-01-11T10:40:23.745Z,97.60
2019-01-11T10:41:29.616Z,97.70
2019-01-11T10:42:36.550Z,97.90
2019-01-11T10:43:42.328Z,98.10
2019-01-11T10:44:48.266Z,97.90
2019-01-11T10:45:54.176Z,97.90
2019-01-11T10:47:00.105Z,98.30
2019-01-11T10:48:06.469Z,98.50
2019-01-11T10:49:12.329Z,98.20
2019-01-11T10:50:18.547Z,98.10
2019-01-11T10:51:28.143Z,97.80
2019-01-11T10:52:31.831Z,97.50
2019-01-11T10:53:37.553Z,97.20
2019-01-11T10:54:44.885Z,97.30
2019-01-11T10:55:50.791Z,97.00
2019-01-11T10:56:56.587Z,96.90
2019-01-11T10:58:02.413Z,97.10
2019-01-11T10:59:08.222Z,97.00
2019-01-11T11:00:17.338Z,97.10
2019-01-11T11:01:23.186Z,97.00
2019-01-11T11:02:28.967Z,97.30
2019-01-11T11:03:34.796Z,97.40
2019-01-11T11:04:40.788Z,97.60
2019-01-11T11:05:46.658Z,97.40
2019-01-11T11:06:52.545Z,97.20
2019-01-11T11:07:58.400Z,96.70
2019-01-11T11:09:05.697Z,96.50
2019-01-11T11:10:12.629Z,96.50
2019-01-11T11:11:18.553Z,96.40
2019-01-11T11:12:24.432Z,96.40
2019-01-11T11:13:34.463Z,96.50
2019-01-11T11:14:40.277Z,96.50
2019-01-11T11:15:48.461Z,96.30
2019-01-11T11:16:54.268Z,96.10
2019-01-11T11:18:00.650Z,96.00
2019-01-11T11:19:06.588Z,95.90
2019-01-11T11:20:16.459Z,95.80
2019-01-11T11:21:22.261Z,95.70
2019-01-11T11:22:28.082Z,95.60
2019-01-11T11:23:33.933Z,95.50
2019-01-11T11:24:39.738Z,95.60
2019-01-11T11:25:45.636Z,95.40
2019-01-11T11:26:51.717Z,95.80
2019-01-11T11:27:57.952Z,95.10
2019-01-11T11:29:03.888Z,94.70
2019-01-11T11:30:11.728Z,94.60
2019-01-11T11:31:17.575Z,94.60
2019-01-11T11:32:31.635Z,94.70
2019-01-11T11:33:37.509Z,94.80
2019-01-11T11:34:46.541Z,95.00
2019-01-11T11:35:52.384Z,95.40
2019-01-11T11:36:59.828Z,95.60
2019-01-11T11:38:05.827Z,95.50
2019-01-11T11:39:12.625Z,95.40
2019-01-11T11:40:18.627Z,95.20
2019-01-11T11:41:24.382Z,95.40
2019-01-11T11:42:30.232Z,95.30
2019-01-11T11:43:35.961Z,95.00
2019-01-11T11:44:42.742Z,94.60
2019-01-11T11:45:48.722Z,94.40
2019-01-11T11:46:56.082Z,94.30
2019-01-11T11:48:01.851Z,94.10
2019-01-11T11:49:07.670Z,94.10
2019-01-11T11:50:14.016Z,94.10
2019-01-11T11:51:19.964Z,94.20
2019-01-11T11:52:25.925Z,94.50
2019-01-11T11:53:33.339Z,94.20
2019-01-11T11:54:39.249Z,94.00
2019-01-11T11:55:45.063Z,93.80
2019-01-11T11:56:50.898Z,93.40
2019-01-11T11:57:56.791Z,93.30
2019-01-11T11:59:02.747Z,92.70
2019-01-11T12:00:11.595Z,92.50
2019-01-11T12:01:17.352Z,93.00
2019-01-11T12:02:23.268Z,93.20
2019-01-11T12:03:29.125Z,93.70
2019-01-11T12:04:34.920Z,93.90
2019-01-11T12:05:40.736Z,93.40
2019-01-11T12:06:46.659Z,93.10
2019-01-11T12:07:52.791Z,92.90
2019-01-11T12:08:58.723Z,92.50
2019-01-11T12:10:05.878Z,92.10
2019-01-11T12:11:11.568Z,91.10
2019-01-11T12:12:17.342Z,90.00
2019-01-11T12:13:23.129Z,89.70
2019-01-11T12:14:29.026Z,90.10
2019-01-11T12:15:34.965Z,90.80
2019-01-11T12:16:41.645Z,91.20
2019-01-11T12:17:47.678Z,91.60
2019-01-11T12:18:53.529Z,91.60
2019-01-11T12:20:00.231Z,91.80
2019-01-11T12:21:06.349Z,91.90
2019-01-11T12:22:12.314Z,91.50
2019-01-11T12:23:18.139Z,90.80
2019-01-11T12:24:24.210Z,89.20
2019-01-11T12:25:31.609Z,88.90
2019-01-11T12:26:37.711Z,87.80
2019-01-11T12:27:43.712Z,89.30
2019-01-11T12:28:49.653Z,90.50
2019-01-11T12:29:55.600Z,91.30
2019-01-11T12:31:01.461Z,91.30
2019-01-11T12:32:07.561Z,91.80
2019-01-11T12:33:15.616Z,92.10
2019-01-11T12:34:21.378Z,92.20
2019-01-11T12:35:27.206Z,92.40
2019-01-11T12:36:34.165Z,92.50
2019-01-11T12:37:40.068Z,92.60
2019-01-11T12:38:45.939Z,92.60
2019-01-11T12:39:51.726Z,93.10
2019-01-11T12:40:57.584Z,93.40
2019-01-11T12:42:03.348Z,93.60
2019-01-11T12:43:09.269Z,93.70
2019-01-11T12:44:15.068Z,94.00
2019-01-11T12:45:20.854Z,94.20
2019-01-11T12:46:26.644Z,94.20
2019-01-11T12:47:32.534Z,94.60
2019-01-11T12:48:38.326Z,94.60
2019-01-11T12:49:44.053Z,94.60
2019-01-11T12:50:49.854Z,94.60
2019-01-11T12:51:55.874Z,94.80
2019-01-11T12:53:01.807Z,94.80
2019-01-11T12:54:07.874Z,94.80
2019-01-11T12:55:13.870Z,95.30
2019-01-11T12:56:19.832Z,95.10
2019-01-11T12:57:26.097Z,95.30
2019-01-11T12:58:32.054Z,95.50
2019-01-11T12:59:38.062Z,95.60
2019-01-11T13:00:43.859Z,95.50
2019-01-11T13:01:49.753Z,95.50
2019-01-11T13:02:55.648Z,95.40
2019-01-11T13:04:01.616Z,95.60
2019-01-11T13:05:09.231Z,95.70
2019-01-11T13:06:15.257Z,95.70
2019-01-11T13:07:22.449Z,95.70
2019-01-11T13:08:29.747Z,95.70
2019-01-11T13:09:35.614Z,95.70
2019-01-11T13:10:42.534Z,95.70
2019-01-11T13:11:48.352Z,95.90
2019-01-11T13:12:54.260Z,96.00
2019-01-11T13:14:00.311Z,96.00
2019-01-11T13:15:08.402Z,96.00
2019-01-11T13:16:14.477Z,96.00
2019-01-11T13:17:21.339Z,96.20
2019-01-11T13:18:27.297Z,96.30
2019-01-11T13:19:33.600Z,96.20
2019-01-11T13:20:39.525Z,96.30
2019-01-11T13:21:45.396Z,96.70
2019-01-11T13:22:51.626Z,97.00
2019-01-11T13:23:57.528Z,97.00
2019-01-11T13:25:03.719Z,97.10
2019-01-11T13:26:10.697Z,96.90
2019-01-11T13:27:16.569Z,97.00
2019-01-11T13:28:27.109Z,96.90
2019-01-11T13:29:32.962Z,96.80
2019-01-11T13:30:38.923Z,96.80
2019-01-11T13:31:44.789Z,96.70
2019-01-11T13:32:50.834Z,96.80
2019-01-11T13:33:56.838Z,96.70
2019-01-11T13:35:02.704Z,96.60
2019-01-11T13:36:13.332Z,96.60
2019-01-11T13:37:19.280Z,96.50
2019-01-11T13:38:26.269Z,96.40
2019-01-11T13:39:32.132Z,96.70
2019-01-11T13:40:38.062Z,97.00
2019-01-11T13:41:44.242Z,97.00
2019-01-11T13:42:50.344Z,96.80
2019-01-11T13:43:56.264Z,96.90
2019-01-11T13:45:02.234Z,96.80
2019-01-11T13:46:08.304Z,97.00
2019-01-11T13:47:14.688Z,97.40
2019-01-11T13:48:20.760Z,97.10
2019-01-11T13:49:27.577Z,97.20
2019-01-11T13:50:41.875Z,97.30
2019-01-11T13:51:47.737Z,97.20
2019-01-11T13:52:53.673Z,97.10
2019-01-11T13:53:59.611Z,97.10
2019-01-11T13:55:05.714Z,97.00
2019-01-11T13:56:11.696Z,97.00
2019-01-11T13:57:17.534Z,97.10
2019-01-11T13:58:23.597Z,97.20
2019-01-11T13:59:29.551Z,97.10
2019-01-11T14:00:35.558Z,97.00
2019-01-11T14:01:44.024Z,97.00
2019-01-11T14:02:49.887Z,97.10
2019-01-11T14:03:55.842Z,97.10
2019-01-11T14:05:01.711Z,96.90
2019-01-11T14:06:08.479Z,96.90
2019-01-11T14:07:14.394Z,97.00
2019-01-11T14:08:20.178Z,97.30
2019-01-11T14:09:26.142Z,97.50
2019-01-11T14:10:32.021Z,97.60
2019-01-11T14:11:37.876Z,97.70
2019-01-11T14:12:44.774Z,97.80
2019-01-11T14:13:50.821Z,98.10
2019-01-11T14:14:57.370Z,97.80
2019-01-11T14:16:03.299Z,97.80
2019-01-11T14:17:09.223Z,97.80
2019-01-11T14:18:15.122Z,97.60
2019-01-11T14:19:21.121Z,97.60
2019-01-11T14:20:27.179Z,97.70
2019-01-11T14:21:33.164Z,97.70
2019-01-11T14:22:39.084Z,97.80
2019-01-11T14:23:45.030Z,97.70
2019-01-11T14:24:51.135Z,97.60
2019-01-11T14:25:57.184Z,97.60
2019-01-11T14:27:03.136Z,97.50
2019-01-11T14:28:09.161Z,97.60
2019-01-11T14:29:15.438Z,97.50
2019-01-11T14:30:21.785Z,97.70
2019-01-11T14:31:28.217Z,97.80
2019-01-11T14:32:34.157Z,97.80
2019-01-11T14:33:40.344Z,98.20
2019-01-11T14:34:46.185Z,98.20
2019-01-11T14:35:52.399Z,98.10
2019-01-11T14:36:58.465Z,98.00
2019-01-11T14:38:04.414Z,98.10
2019-01-11T14:39:10.697Z,98.10
2019-01-11T14:40:17.087Z,97.90
2019-01-11T14:41:23.610Z,97.80
2019-01-11T14:42:29.567Z,97.70
2019-01-11T14:43:35.475Z,97.90
2019-01-11T14:44:41.411Z,98.20
2019-01-11T14:45:47.319Z,98.10
2019-01-11T14:46:53.712Z,98.20
2019-01-11T14:47:59.787Z,98.30
2019-01-11T14:49:05.721Z,98.20
2019-01-11T14:50:14.454Z,98.10
2019-01-11T14:51:21.625Z,98.10
2019-01-11T14:52:29.361Z,98.20
2019-01-11T14:53:35.282Z,98.30
2019-01-11T14:54:41.214Z,98.20
2019-01-11T14:55:47.332Z,98.10
2019-01-11T14:56:53.583Z,98.20
2019-01-11T14:57:59.505Z,98.10
2019-01-11T14:59:06.087Z,98.00
2019-01-11T15:00:23.413Z,98.10
2019-01-11T15:01:29.536Z,98.20
2019-01-11T15:02:36.086Z,98.30
2019-01-11T15:03:41.949Z,98.40
2019-01-11T15:04:47.978Z,98.40
2019-01-11T15:05:53.882Z,98.40
2019-01-11T15:06:59.870Z,98.50
2019-01-11T15:08:06.172Z,98.70
2019-01-11T15:09:12.103Z,98.60
2019-01-11T15:10:18.246Z,98.50
2019-01-11T15:11:24.332Z,98.50
2019-01-11T15:12:30.344Z,98.40
2019-01-11T15:13:36.131Z,98.50
2019-01-11T15:14:42.084Z,98.30
2019-01-11T15:15:48.107Z,98.30
2019-01-11T15:16:54.054Z,98.50
2019-01-11T15:17:59.845Z,98.50
2019-01-11T15:19:05.866Z,98.50
2019-01-11T15:20:14.049Z,98.50
2019-01-11T15:21:20.600Z,98.30
2019-01-11T15:22:26.837Z,98.20
2019-01-11T15:23:32.928Z,98.10
2019-01-11T15:24:39.041Z,98.00
2019-01-11T15:25:45.013Z,97.90
2019-01-11T15:26:52.120Z,98.00
2019-01-11T15:27:58.206Z,98.10
2019-01-11T15:29:04.202Z,98.10
2019-01-11T15:30:13.566Z,98.20
2019-01-11T15:31:19.516Z,98.30
2019-01-11T15:32:25.596Z,98.40
2019-01-11T15:33:31.441Z,98.40
2019-01-11T15:34:37.704Z,98.30
2019-01-11T15:35:43.726Z,98.30